Time;durP1;ratioP1;P1;durP2;ratioP2;P2;SDS_P1;SDS_P2;PMS_P1;PMS_P2;Temp;Humidity;BMP_temperature;BMP_pressure;BME280_temperature;BME280_humidity;BME280_pressure;Samples;Min_cycle;Max_cycle;Signal;HPM_P1;HPM_P2
2022/10/31 00:01:23;;;;;;;9.50;6.53;;;13.50;86.00;;;;;;5016281;28;20375;-77
2022/10/31 00:03:48;;;;;;;10.65;6.43;;;13.40;86.10;;;;;;5015635;28;20124;-79
2022/10/31 00:06:17;;;;;;;12.48;6.22;;;13.40;86.20;;;;;;5017838;28;20430;-77
2022/10/31 00:08:44;;;;;;;9.27;6.25;;;13.30;86.30;;;;;;5016377;28;20076;-79
2022/10/31 00:11:10;;;;;;;11.38;6.88;;;13.30;86.40;;;;;;5010833;28;20095;-79
2022/10/31 00:13:36;;;;;;;9.90;6.68;;;13.30;86.40;;;;;;5017494;28;20453;-81
2022/10/31 00:16:02;;;;;;;11.57;7.10;;;13.20;86.50;;;;;;5012767;28;20040;-79
2022/10/31 00:18:27;;;;;;;10.75;6.90;;;13.20;86.30;;;;;;5017583;28;20753;-79
2022/10/31 00:21:00;;;;;;;11.68;7.35;;;13.20;86.30;;;;;;5018913;28;20069;-81
2022/10/31 00:23:26;;;;;;;9.55;6.30;;;13.10;86.40;;;;;;5013053;28;21707;-80
2022/10/31 00:25:52;;;;;;;10.25;6.43;;;13.10;86.50;;;;;;5016516;28;20045;-78
2022/10/31 00:28:17;;;;;;;11.07;6.30;;;13.10;86.60;;;;;;5014251;28;20026;-80
2022/10/31 00:30:43;;;;;;;11.93;6.63;;;13.10;86.70;;;;;;5017581;28;20258;-81
2022/10/31 00:33:08;;;;;;;9.93;6.55;;;13.10;86.80;;;;;;5015641;28;20131;-81
2022/10/31 00:35:34;;;;;;;11.40;6.80;;;13.00;86.90;;;;;;5016549;28;20030;-77
2022/10/31 00:37:59;;;;;;;10.65;6.93;;;13.00;86.90;;;;;;5013402;28;20085;-79
2022/10/31 00:40:25;;;;;;;11.98;6.75;;;13.00;87.00;;;;;;5014602;28;20689;-79
2022/10/31 00:42:51;;;;;;;11.95;7.28;;;13.00;87.10;;;;;;5013601;28;20021;-78
2022/10/31 00:45:16;;;;;;;12.18;6.93;;;13.00;87.20;;;;;;5014892;28;20036;-79
2022/10/31 00:47:42;;;;;;;9.55;6.28;;;13.00;87.20;;;;;;5009360;28;20714;-79
2022/10/31 00:50:08;;;;;;;13.48;7.82;;;13.00;87.20;;;;;;5013068;28;20376;-77
2022/10/31 00:52:34;;;;;;;12.77;8.00;;;12.90;87.30;;;;;;5016792;28;20598;-80
2022/10/31 00:54:59;;;;;;;13.48;7.13;;;13.00;87.40;;;;;;5017007;28;20042;-80
2022/10/31 00:57:25;;;;;;;11.13;6.93;;;12.90;87.40;;;;;;5017506;28;20124;-79
2022/10/31 00:59:50;;;;;;;10.88;6.97;;;12.90;87.40;;;;;;5015760;28;20461;-80
2022/10/31 01:02:16;;;;;;;11.90;7.10;;;12.90;87.50;;;;;;5010315;28;20256;-78
2022/10/31 01:04:42;;;;;;;11.98;7.75;;;12.80;87.50;;;;;;5020281;28;20061;-79
2022/10/31 01:07:07;;;;;;;11.50;7.63;;;12.90;87.60;;;;;;5012585;28;20547;-79
2022/10/31 01:09:33;;;;;;;12.43;7.70;;;12.80;87.50;;;;;;5006668;28;20042;-77
2022/10/31 01:11:59;;;;;;;11.05;7.28;;;12.80;87.50;;;;;;5013406;28;20041;-79
2022/10/31 01:14:24;;;;;;;11.52;7.38;;;12.80;87.70;;;;;;5016972;28;20100;-80
2022/10/31 01:16:50;;;;;;;12.18;7.25;;;12.80;87.60;;;;;;5016585;28;20478;-78
2022/10/31 01:19:16;;;;;;;11.25;7.25;;;12.80;87.70;;;;;;5015157;28;20466;-79
2022/10/31 01:21:41;;;;;;;12.30;7.82;;;12.80;87.70;;;;;;5012181;28;20046;-78
2022/10/31 01:24:08;;;;;;;13.27;7.90;;;12.70;87.80;;;;;;5015456;28;20029;-79
2022/10/31 01:26:33;;;;;;;14.52;9.20;;;12.70;87.80;;;;;;5026417;28;20128;-78
2022/10/31 01:29:03;;;;;;;15.93;9.98;;;12.60;87.90;;;;;;5016957;28;20144;-78
2022/10/31 01:31:32;;;;;;;13.43;8.60;;;12.70;87.80;;;;;;5013599;28;20083;-81
2022/10/31 01:33:58;;;;;;;11.93;7.63;;;12.60;87.80;;;;;;5013552;28;20113;-79
2022/10/31 01:36:35;;;;;;;12.00;7.78;;;12.60;87.80;;;;;;5015568;28;20049;-76
2022/10/31 01:39:10;;;;;;;11.30;7.60;;;12.60;87.80;;;;;;5018887;28;20477;-77
2022/10/31 01:41:39;;;;;;;12.40;8.13;;;12.50;87.80;;;;;;5017488;28;20036;-79
2022/10/31 01:44:13;;;;;;;10.90;7.03;;;12.50;87.80;;;;;;5019531;28;20823;-78
2022/10/31 01:46:41;;;;;;;13.30;7.90;;;12.40;87.80;;;;;;5017240;28;20133;-79
2022/10/31 01:49:19;;;;;;;12.45;7.18;;;12.40;87.90;;;;;;5016585;28;20041;-78
2022/10/31 01:51:50;;;;;;;14.77;7.18;;;12.40;87.90;;;;;;5015070;28;20029;-78
2022/10/31 01:54:18;;;;;;;11.85;7.63;;;12.40;87.90;;;;;;5018792;28;20038;-79
2022/10/31 01:56:48;;;;;;;12.88;7.45;;;12.40;87.90;;;;;;5017849;28;20700;-78
2022/10/31 01:59:19;;;;;;;11.07;7.40;;;12.40;88.00;;;;;;5016543;28;20131;-77
2022/10/31 02:01:45;;;;;;;10.23;6.72;;;12.30;88.00;;;;;;5020045;28;20444;-77
2022/10/31 02:04:10;;;;;;;11.93;7.40;;;12.30;88.00;;;;;;5019788;28;20041;-79
2022/10/31 02:06:43;;;;;;;12.20;8.38;;;12.30;88.00;;;;;;5018251;28;20033;-79
2022/10/31 02:09:08;;;;;;;10.68;7.05;;;12.20;87.90;;;;;;5014262;28;20034;-79
2022/10/31 02:11:35;;;;;;;11.43;7.22;;;12.20;88.00;;;;;;5019689;28;20076;-78
2022/10/31 02:14:02;;;;;;;12.43;7.20;;;12.20;88.00;;;;;;5018759;28;20030;-79
2022/10/31 02:16:28;;;;;;;11.10;7.30;;;12.30;87.90;;;;;;5019282;28;20037;-76
2022/10/31 02:18:54;;;;;;;12.57;7.43;;;12.20;87.90;;;;;;5017564;28;20116;-81
2022/10/31 02:21:56;;;;;;;12.23;7.50;;;12.30;88.00;;;;;;5018606;28;20112;-79
2022/10/31 02:24:25;;;;;;;13.07;8.23;;;12.20;87.90;;;;;;4998796;28;20119;-77
2022/10/31 02:27:11;;;;;;;10.90;7.43;;;12.20;88.00;;;;;;5018328;28;20376;-78
2022/10/31 02:29:49;;;;;;;13.27;7.57;;;12.20;88.00;;;;;;5013956;28;20966;-77
2022/10/31 02:32:40;;;;;;;11.57;8.05;;;12.20;88.00;;;;;;5017689;28;20044;-77
2022/10/31 02:35:23;;;;;;;11.43;7.95;;;12.20;88.00;;;;;;5017087;28;20464;-78
2022/10/31 02:37:54;;;;;;;10.20;7.07;;;12.10;87.90;;;;;;5015292;28;20559;-79
2022/10/31 02:40:28;;;;;;;12.75;7.50;;;12.10;87.90;;;;;;5029034;28;20384;-79
2022/10/31 02:43:03;;;;;;;12.10;7.63;;;12.10;87.90;;;;;;5015649;28;20479;-79
2022/10/31 02:45:33;;;;;;;10.30;7.13;;;12.10;88.00;;;;;;5018205;28;20025;-76
2022/10/31 02:48:05;;;;;;;13.52;8.15;;;12.10;88.00;;;;;;5017611;28;20033;-77
2022/10/31 02:50:36;;;;;;;13.23;8.07;;;12.00;88.00;;;;;;5016460;28;20073;-79
2022/10/31 02:53:03;;;;;;;12.13;7.78;;;12.00;88.00;;;;;;5016983;28;20025;-79
2022/10/31 02:55:28;;;;;;;11.18;7.13;;;12.00;88.10;;;;;;5014510;28;20727;-78
2022/10/31 02:57:58;;;;;;;14.25;7.53;;;12.00;88.10;;;;;;5016340;28;20568;-79
2022/10/31 03:00:24;;;;;;;13.60;7.75;;;12.00;88.10;;;;;;5019176;28;20044;-79
2022/10/31 03:03:40;;;;;;;11.48;7.32;;;12.00;88.20;;;;;;5010272;28;20083;-77
2022/10/31 03:06:20;;;;;;;11.30;7.47;;;12.00;88.20;;;;;;5005650;28;20036;-79
2022/10/31 03:09:37;;;;;;;11.85;8.23;;;12.00;88.20;;;;;;5016316;28;20028;-77
2022/10/31 03:12:08;;;;;;;13.05;7.70;;;12.00;88.20;;;;;;4973483;28;20034;-79
2022/10/31 03:14:41;;;;;;;10.95;8.13;;;12.00;88.20;;;;;;5015265;28;20033;-77
2022/10/31 03:17:14;;;;;;;14.05;8.85;;;12.00;88.20;;;;;;5016721;28;20112;-78
2022/10/31 03:19:42;;;;;;;13.55;7.85;;;12.00;88.30;;;;;;5015451;28;20029;-78
2022/10/31 03:22:17;;;;;;;12.52;8.40;;;12.10;88.40;;;;;;5015150;28;20394;-76
2022/10/31 03:24:44;;;;;;;14.15;8.80;;;12.00;88.40;;;;;;5020190;28;20038;-80
2022/10/31 03:27:14;;;;;;;14.02;8.63;;;12.00;88.40;;;;;;5017064;28;20038;-81
2022/10/31 03:29:42;;;;;;;10.82;7.85;;;12.00;88.40;;;;;;5017338;28;20096;-78
2022/10/31 03:32:12;;;;;;;15.80;9.45;;;12.10;88.50;;;;;;5016728;28;20112;-78
2022/10/31 03:34:41;;;;;;;12.30;7.63;;;12.10;88.60;;;;;;5016288;28;20365;-79
2022/10/31 03:37:10;;;;;;;13.95;8.55;;;12.10;88.60;;;;;;5016440;28;20461;-79
2022/10/31 03:39:36;;;;;;;15.23;8.13;;;12.10;88.60;;;;;;5018738;28;20090;-79
2022/10/31 03:42:15;;;;;;;12.88;8.75;;;12.10;88.60;;;;;;5012103;28;20107;-79
2022/10/31 03:44:45;;;;;;;14.70;8.25;;;12.10;88.60;;;;;;5017964;28;20131;-76
2022/10/31 03:47:11;;;;;;;10.93;8.10;;;12.10;88.60;;;;;;5012767;28;20064;-79
2022/10/31 03:49:37;;;;;;;11.82;8.20;;;12.10;88.60;;;;;;5014918;28;20030;-77
2022/10/31 03:52:29;;;;;;;15.35;8.88;;;12.10;88.70;;;;;;5016637;28;20032;-79
2022/10/31 03:55:17;;;;;;;13.65;8.20;;;12.00;88.60;;;;;;5013319;28;20518;-78
2022/10/31 03:58:08;;;;;;;13.13;8.95;;;11.90;88.60;;;;;;5019149;28;20124;-78
2022/10/31 04:00:38;;;;;;;12.02;8.45;;;11.90;88.60;;;;;;5018074;28;20582;-78
2022/10/31 04:03:10;;;;;;;13.45;8.27;;;11.80;88.90;;;;;;5016215;28;20033;-79
2022/10/31 04:05:37;;;;;;;15.48;8.68;;;11.70;88.90;;;;;;5013673;28;20037;-79
2022/10/31 04:08:07;;;;;;;11.77;8.35;;;11.70;89.00;;;;;;5014355;28;20125;-79
2022/10/31 04:10:34;;;;;;;14.25;9.85;;;11.60;89.10;;;;;;5016832;28;20025;-79
2022/10/31 04:13:13;;;;;;;14.45;9.07;;;11.60;89.00;;;;;;5013212;28;20381;-80
2022/10/31 04:15:41;;;;;;;14.85;8.68;;;11.70;88.80;;;;;;5016579;28;20049;-78
2022/10/31 04:18:06;;;;;;;12.43;9.10;;;11.70;88.70;;;;;;5012295;28;20045;-77
2022/10/31 04:20:37;;;;;;;14.82;9.35;;;11.70;88.60;;;;;;5015823;28;20713;-77
2022/10/31 04:23:04;;;;;;;14.63;8.80;;;11.70;88.60;;;;;;5012947;28;20038;-76
2022/10/31 04:25:30;;;;;;;12.75;8.25;;;11.60;88.50;;;;;;5012678;28;20037;-78
2022/10/31 04:27:55;;;;;;;16.60;9.00;;;11.60;88.50;;;;;;5015174;28;20103;-79
2022/10/31 04:30:21;;;;;;;15.65;9.40;;;11.60;88.50;;;;;;5014166;28;20128;-78
2022/10/31 04:32:47;;;;;;;16.05;9.57;;;11.50;88.50;;;;;;5020119;28;20029;-79
2022/10/31 04:35:13;;;;;;;16.80;9.77;;;11.50;88.60;;;;;;5018500;28;20360;-78
2022/10/31 04:37:38;;;;;;;16.17;9.45;;;11.40;88.60;;;;;;5015524;28;20065;-79
2022/10/31 04:40:05;;;;;;;14.52;10.02;;;11.40;88.60;;;;;;5015936;28;20481;-79
2022/10/31 04:42:31;;;;;;;14.10;10.15;;;11.40;88.70;;;;;;5014507;28;20090;-78
2022/10/31 04:44:56;;;;;;;13.82;9.38;;;11.40;88.60;;;;;;5016514;28;20112;-78
2022/10/31 04:47:22;;;;;;;15.02;9.27;;;11.40;88.60;;;;;;5013294;28;20090;-80
2022/10/31 04:49:47;;;;;;;14.75;9.50;;;11.00;89.20;;;;;;5013013;28;20057;-79
2022/10/31 04:52:13;;;;;;;13.10;8.63;;;10.80;89.90;;;;;;5017341;28;20100;-79
2022/10/31 04:54:39;;;;;;;14.18;9.45;;;10.60;90.30;;;;;;5016578;28;20125;-79
2022/10/31 04:57:04;;;;;;;15.80;10.35;;;10.50;90.60;;;;;;5017353;28;20044;-79
2022/10/31 04:59:30;;;;;;;14.88;9.95;;;10.50;90.80;;;;;;5017970;28;21025;-79
2022/10/31 05:01:55;;;;;;;13.02;9.77;;;10.40;91.00;;;;;;5013144;28;20324;-79
2022/10/31 05:04:21;;;;;;;12.52;8.68;;;10.40;91.10;;;;;;5015389;28;20065;-79
2022/10/31 05:06:47;;;;;;;13.60;9.93;;;10.30;91.10;;;;;;5017799;28;20059;-79
2022/10/31 05:09:12;;;;;;;13.10;9.25;;;10.30;91.10;;;;;;5012044;28;20049;-78
2022/10/31 05:11:38;;;;;;;17.25;10.45;;;10.30;91.20;;;;;;5020008;28;20373;-79
2022/10/31 05:14:03;;;;;;;15.27;9.73;;;10.20;91.10;;;;;;5014143;28;20038;-78
2022/10/31 05:16:29;;;;;;;14.27;9.40;;;10.20;91.20;;;;;;5015429;28;20416;-76
2022/10/31 05:18:55;;;;;;;14.15;9.77;;;10.20;91.20;;;;;;5016303;28;20038;-79
2022/10/31 05:21:20;;;;;;;13.85;9.57;;;10.10;91.30;;;;;;5015747;28;20042;-78
2022/10/31 05:23:46;;;;;;;15.68;9.95;;;10.10;91.30;;;;;;5017814;28;20516;-77
2022/10/31 05:26:11;;;;;;;16.70;11.02;;;10.10;91.40;;;;;;5015570;28;20045;-79
2022/10/31 05:28:37;;;;;;;14.50;9.55;;;10.10;91.30;;;;;;5018473;28;20037;-78
2022/10/31 05:31:03;;;;;;;13.30;9.25;;;10.00;91.40;;;;;;5019420;28;20033;-78
2022/10/31 05:33:29;;;;;;;12.85;9.10;;;10.00;91.40;;;;;;5018374;28;20103;-80
2022/10/31 05:35:54;;;;;;;13.13;9.25;;;10.10;91.50;;;;;;5018708;28;20642;-78
2022/10/31 05:38:20;;;;;;;13.65;10.30;;;10.00;91.40;;;;;;5016442;28;20041;-79
2022/10/31 05:40:45;;;;;;;13.00;9.85;;;9.90;91.30;;;;;;5017448;28;20502;-77
2022/10/31 05:43:11;;;;;;;14.43;9.25;;;9.90;91.30;;;;;;5015208;28;20073;-79
2022/10/31 05:45:37;;;;;;;14.20;9.68;;;9.90;91.40;;;;;;5019260;28;20046;-79
2022/10/31 05:48:02;;;;;;;15.82;10.00;;;10.00;91.40;;;;;;5016494;28;20124;-78
2022/10/31 05:50:30;;;;;;;12.18;9.45;;;10.00;91.40;;;;;;5018307;28;20533;-79
2022/10/31 05:52:57;;;;;;;14.60;9.48;;;10.00;91.40;;;;;;5015383;28;20057;-78
2022/10/31 05:55:22;;;;;;;14.05;8.48;;;10.00;91.50;;;;;;5016692;28;20045;-79
2022/10/31 05:57:48;;;;;;;13.23;7.95;;;10.10;91.50;;;;;;5018392;28;20354;-78
2022/10/31 06:00:14;;;;;;;12.48;9.02;;;10.10;91.40;;;;;;5020131;28;20670;-77
2022/10/31 06:02:39;;;;;;;11.73;8.27;;;10.10;91.30;;;;;;5015686;28;20068;-77
2022/10/31 06:05:05;;;;;;;15.18;9.60;;;10.10;91.20;;;;;;5014967;28;20040;-79
2022/10/31 06:07:35;;;;;;;14.27;8.63;;;10.00;91.30;;;;;;5016681;28;20057;-79
2022/10/31 06:10:01;;;;;;;14.40;9.02;;;10.10;91.30;;;;;;5015874;28;20552;-77
2022/10/31 06:12:27;;;;;;;12.18;9.30;;;10.10;91.30;;;;;;5016988;28;20046;-80
2022/10/31 06:14:53;;;;;;;12.70;9.57;;;10.10;91.20;;;;;;5017679;28;20041;-79
2022/10/31 06:17:19;;;;;;;12.85;8.98;;;10.10;91.30;;;;;;5016352;28;20188;-78
2022/10/31 06:19:45;;;;;;;12.10;8.57;;;10.10;91.20;;;;;;5020138;28;20648;-78
2022/10/31 06:22:11;;;;;;;11.00;8.18;;;10.10;91.30;;;;;;5016693;28;20049;-77
2022/10/31 06:24:38;;;;;;;12.13;8.18;;;10.20;91.40;;;;;;5015934;28;20491;-78
2022/10/31 06:27:04;;;;;;;12.18;8.57;;;10.20;91.40;;;;;;5012482;28;20064;-78
2022/10/31 06:29:29;;;;;;;14.05;9.32;;;10.30;91.50;;;;;;5018326;28;20046;-80
2022/10/31 06:31:55;;;;;;;14.18;9.40;;;10.30;91.50;;;;;;5012385;28;20040;-79
2022/10/31 06:34:20;;;;;;;16.45;9.55;;;10.30;91.50;;;;;;5017663;28;20048;-78
2022/10/31 06:36:47;;;;;;;15.68;10.63;;;10.30;91.60;;;;;;5011396;28;20464;-78
2022/10/31 06:39:12;;;;;;;12.70;9.18;;;10.40;91.60;;;;;;5015558;28;20495;-79
2022/10/31 06:41:39;;;;;;;13.75;10.02;;;10.40;91.60;;;;;;5015611;28;20090;-78
2022/10/31 06:44:06;;;;;;;13.85;9.68;;;10.40;91.60;;;;;;5016951;28;20174;-78
2022/10/31 06:46:32;;;;;;;13.82;9.50;;;10.40;91.50;;;;;;5036266;28;20034;-77
2022/10/31 06:48:57;;;;;;;13.70;9.32;;;10.50;91.50;;;;;;5013938;28;20030;-80
2022/10/31 06:51:23;;;;;;;12.15;9.15;;;10.50;91.50;;;;;;5017195;28;20037;-79
2022/10/31 06:53:49;;;;;;;14.18;8.88;;;10.60;91.50;;;;;;5021882;28;20549;-78
2022/10/31 06:56:14;;;;;;;12.35;9.05;;;10.60;91.40;;;;;;5018468;28;20036;-79
2022/10/31 06:58:40;;;;;;;12.82;9.02;;;10.60;91.40;;;;;;5025413;28;20060;-78
2022/10/31 07:01:06;;;;;;;15.07;9.70;;;10.60;91.40;;;;;;5017156;28;20056;-80
2022/10/31 07:03:32;;;;;;;12.77;9.48;;;10.60;91.40;;;;;;5013387;28;20053;-81
2022/10/31 07:05:57;;;;;;;15.65;10.13;;;10.70;91.40;;;;;;5021145;28;20140;-81
2022/10/31 07:08:23;;;;;;;15.80;10.55;;;10.80;91.50;;;;;;5023423;28;20507;-78
2022/10/31 07:10:54;;;;;;;17.00;9.95;;;10.80;91.50;;;;;;5020081;28;20033;-78
2022/10/31 07:13:25;;;;;;;17.52;11.35;;;10.90;91.50;;;;;;5016879;28;20088;-79
2022/10/31 07:15:54;;;;;;;14.80;10.40;;;10.90;91.50;;;;;;5015993;28;20109;-79
2022/10/31 07:18:21;;;;;;;16.92;11.43;;;11.00;91.50;;;;;;5012811;28;20212;-79
2022/10/31 07:20:47;;;;;;;16.35;11.23;;;11.00;91.50;;;;;;5020852;28;20168;-80
2022/10/31 07:23:13;;;;;;;16.08;11.90;;;11.10;91.50;;;;;;5015011;28;20037;-81
2022/10/31 07:25:39;;;;;;;17.90;13.27;;;11.10;91.50;;;;;;5015588;28;20484;-81
2022/10/31 07:28:06;;;;;;;16.45;12.13;;;11.20;91.50;;;;;;5016973;28;20038;-78
2022/10/31 07:30:32;;;;;;;16.95;12.48;;;11.30;91.60;;;;;;5019039;28;20521;-80
2022/10/31 07:32:57;;;;;;;19.45;12.93;;;11.40;91.60;;;;;;5019233;28;20030;-79
2022/10/31 07:35:25;;;;;;;15.65;11.43;;;11.50;91.60;;;;;;5024166;28;20631;-81
2022/10/31 07:37:51;;;;;;;19.27;13.55;;;11.50;91.50;;;;;;5018489;28;20111;-79
2022/10/31 07:40:18;;;;;;;18.92;13.68;;;11.60;91.50;;;;;;5029760;28;20037;-80
2022/10/31 07:42:46;;;;;;;20.35;14.73;;;11.70;91.40;;;;;;5028352;28;20116;-82
2022/10/31 07:45:14;;;;;;;20.02;15.20;;;11.80;91.40;;;;;;5029618;28;20038;-82
2022/10/31 07:47:43;;;;;;;19.10;14.73;;;11.90;91.30;;;;;;5032158;28;20568;-81
2022/10/31 07:50:10;;;;;;;19.15;14.65;;;12.00;91.10;;;;;;5037826;28;20045;-81
2022/10/31 07:52:36;;;;;;;17.90;13.25;;;12.10;91.10;;;;;;5029807;28;20033;-81
2022/10/31 07:55:03;;;;;;;18.90;13.48;;;12.10;91.00;;;;;;5025780;28;20037;-81
2022/10/31 07:57:28;;;;;;;20.70;13.43;;;12.10;91.00;;;;;;5028473;28;20057;-83
2022/10/31 07:59:54;;;;;;;19.10;13.00;;;12.20;91.00;;;;;;5027353;28;20088;-81
2022/10/31 08:02:20;;;;;;;18.77;13.10;;;12.20;91.00;;;;;;5023687;28;20029;-83
2022/10/31 08:04:45;;;;;;;19.70;13.57;;;12.30;91.00;;;;;;5027493;28;20057;-82
2022/10/31 08:07:11;;;;;;;19.35;14.38;;;12.50;91.10;;;;;;5029829;28;20041;-81
2022/10/31 08:09:37;;;;;;;18.98;15.50;;;12.50;91.10;;;;;;5028861;28;20049;-82
2022/10/31 08:12:03;;;;;;;20.92;15.80;;;12.60;91.10;;;;;;5027317;28;20037;-82
2022/10/31 08:14:28;;;;;;;19.02;15.13;;;12.70;91.00;;;;;;5022205;28;20112;-82
2022/10/31 08:16:54;;;;;;;22.65;17.55;;;12.70;90.80;;;;;;5022112;28;20029;-83
2022/10/31 08:19:20;;;;;;;34.72;29.55;;;12.80;90.80;;;;;;5023521;28;20042;-81
2022/10/31 08:21:45;;;;;;;38.17;33.17;;;12.90;90.70;;;;;;5019393;28;20129;-79
2022/10/31 08:24:11;;;;;;;29.73;24.00;;;13.00;90.50;;;;;;5023190;28;20083;-77
2022/10/31 08:26:37;;;;;;;24.77;20.10;;;13.00;90.30;;;;;;5025762;28;20037;-79
2022/10/31 08:29:04;;;;;;;34.63;26.58;;;13.00;90.30;;;;;;5019814;28;20053;-80
2022/10/31 08:31:30;;;;;;;20.33;15.77;;;13.10;90.00;;;;;;5016384;28;20039;-80
2022/10/31 08:33:55;;;;;;;19.33;14.98;;;13.10;89.90;;;;;;5025205;28;20025;-81
2022/10/31 08:36:21;;;;;;;22.17;18.27;;;13.10;89.80;;;;;;5013798;28;20125;-82
2022/10/31 08:38:47;;;;;;;26.08;20.90;;;13.20;89.80;;;;;;5020249;28;20033;-78
2022/10/31 08:41:13;;;;;;;24.30;18.65;;;13.20;89.90;;;;;;5019804;28;20701;-79
2022/10/31 08:43:39;;;;;;;21.85;16.33;;;13.30;89.80;;;;;;5019374;28;20034;-79
2022/10/31 08:46:05;;;;;;;25.25;19.92;;;13.20;89.60;;;;;;5023187;28;20039;-79
2022/10/31 08:48:31;;;;;;;23.23;17.40;;;13.20;89.60;;;;;;5026965;28;20464;-78
2022/10/31 08:50:58;;;;;;;22.40;17.10;;;13.30;89.70;;;;;;5020628;28;20068;-78
2022/10/31 08:53:25;;;;;;;19.35;15.65;;;13.30;89.80;;;;;;5015215;28;20048;-78
2022/10/31 08:55:53;;;;;;;20.25;15.77;;;13.30;89.90;;;;;;5019793;28;20041;-78
2022/10/31 08:58:20;;;;;;;29.88;24.42;;;13.40;89.90;;;;;;5024153;28;20523;-81
2022/10/31 09:00:48;;;;;;;31.90;25.58;;;13.40;89.90;;;;;;5023323;28;20094;-77
2022/10/31 09:03:17;;;;;;;24.52;21.92;;;13.40;89.90;;;;;;5018764;28;20377;-80
2022/10/31 09:05:43;;;;;;;25.20;19.35;;;13.50;89.80;;;;;;5034056;28;20045;-79
2022/10/31 09:08:09;;;;;;;22.38;17.35;;;13.50;89.90;;;;;;5022008;28;20081;-81
2022/10/31 09:10:36;;;;;;;20.98;15.95;;;13.50;89.70;;;;;;5020989;28;20053;-81
2022/10/31 09:13:08;;;;;;;22.58;17.85;;;13.50;89.60;;;;;;5023614;28;20037;-79
2022/10/31 09:15:38;;;;;;;73.47;54.40;;;13.50;89.80;;;;;;5016997;28;20060;-80
2022/10/31 09:18:04;;;;;;;33.90;27.30;;;13.50;89.90;;;;;;5022401;28;20029;-80
2022/10/31 09:20:31;;;;;;;26.77;19.55;;;13.50;90.00;;;;;;5019909;28;20034;-78
2022/10/31 09:23:01;;;;;;;17.88;14.75;;;13.60;90.00;;;;;;5015850;28;20049;-79
2022/10/31 09:25:27;;;;;;;18.40;15.00;;;13.60;90.10;;;;;;5019265;28;20041;-77
2022/10/31 09:28:00;;;;;;;24.98;18.40;;;13.70;90.10;;;;;;5016720;28;20039;-78
2022/10/31 09:30:28;;;;;;;100.55;69.28;;;13.80;90.10;;;;;;5021740;28;20048;-79
2022/10/31 09:33:02;;;;;;;35.22;26.98;;;13.90;89.90;;;;;;5023549;28;20558;-79
2022/10/31 09:35:28;;;;;;;21.48;17.13;;;14.00;89.90;;;;;;5022764;28;20073;-78
2022/10/31 09:37:59;;;;;;;21.17;15.90;;;14.10;89.70;;;;;;5019048;28;20041;-79
2022/10/31 09:40:30;;;;;;;23.75;17.83;;;14.10;89.40;;;;;;5022253;28;20050;-78
2022/10/31 09:43:21;;;;;;;22.33;16.02;;;14.20;89.50;;;;;;5018105;28;20508;-76
2022/10/31 09:46:24;;;;;;;21.27;15.18;;;14.30;89.40;;;;;;5019209;28;20183;-77
2022/10/31 09:49:12;;;;;;;22.67;15.38;;;14.40;89.20;;;;;;5017399;28;20107;-77
2022/10/31 09:51:43;;;;;;;20.45;14.63;;;14.60;89.10;;;;;;5020792;28;20034;-78
2022/10/31 09:54:17;;;;;;;21.70;16.05;;;14.70;88.80;;;;;;5019362;28;20022;-77
2022/10/31 09:56:44;;;;;;;19.98;13.52;;;14.80;88.70;;;;;;5023222;28;20034;-76
2022/10/31 09:59:30;;;;;;;19.95;14.20;;;15.00;88.40;;;;;;5025714;28;20037;-77
2022/10/31 10:02:13;;;;;;;19.45;12.02;;;15.10;87.60;;;;;;5018111;28;20443;-76
2022/10/31 10:05:12;;;;;;;16.45;11.10;;;15.30;87.10;;;;;;5023464;28;20033;-77
2022/10/31 10:08:03;;;;;;;16.88;12.82;;;15.50;86.30;;;;;;5017075;28;20056;-76
2022/10/31 10:10:53;;;;;;;16.92;10.85;;;15.70;86.40;;;;;;5027269;28;20164;-74
2022/10/31 10:13:50;;;;;;;16.13;11.70;;;15.70;85.30;;;;;;5021779;28;20034;-78
2022/10/31 10:16:33;;;;;;;17.25;13.55;;;15.90;85.10;;;;;;5022891;28;20372;-77
2022/10/31 10:19:18;;;;;;;23.35;18.52;;;16.00;84.80;;;;;;5023306;28;20030;-80
2022/10/31 10:22:10;;;;;;;15.10;10.38;;;16.10;84.30;;;;;;5009307;28;20050;-79
2022/10/31 10:24:54;;;;;;;16.60;10.80;;;16.20;83.40;;;;;;5024361;28;20041;-77
2022/10/31 10:27:49;;;;;;;16.60;10.48;;;16.20;83.20;;;;;;5027732;28;20044;-77
2022/10/31 10:30:32;;;;;;;17.05;11.52;;;16.10;83.10;;;;;;5007341;28;20041;-77
2022/10/31 10:33:00;;;;;;;19.33;11.48;;;16.20;83.30;;;;;;5017981;28;20369;-79
2022/10/31 10:35:41;;;;;;;14.82;11.07;;;16.30;82.90;;;;;;5025957;28;20060;-79
2022/10/31 10:38:44;;;;;;;16.55;12.18;;;16.40;82.90;;;;;;5021844;28;20345;-79
2022/10/31 10:41:24;;;;;;;17.73;11.70;;;16.50;82.80;;;;;;5023497;28;20082;-80
2022/10/31 10:43:51;;;;;;;15.63;11.63;;;16.60;82.50;;;;;;5035619;28;20424;-76
2022/10/31 10:49:46;;;;;;;14.32;10.57;;;16.90;81.00;;;;;;5024960;28;20080;-77
2022/10/31 10:52:36;;;;;;;16.60;11.23;;;17.00;81.60;;;;;;5022658;28;20572;-78
2022/10/31 10:55:20;;;;;;;14.93;9.70;;;17.10;80.70;;;;;;5025036;28;20184;-77
2022/10/31 10:57:53;;;;;;;13.97;9.57;;;17.10;79.30;;;;;;5022788;28;20025;-76
2022/10/31 11:00:30;;;;;;;13.18;9.60;;;17.10;80.00;;;;;;5022158;28;20130;-76
2022/10/31 11:02:56;;;;;;;17.70;10.95;;;17.10;79.80;;;;;;5020995;28;20086;-75
2022/10/31 11:05:49;;;;;;;14.15;10.48;;;17.00;79.70;;;;;;5023785;28;20042;-77
2022/10/31 11:08:30;;;;;;;19.35;11.55;;;16.90;80.10;;;;;;5021909;28;20056;-77
2022/10/31 11:11:18;;;;;;;15.88;11.48;;;16.80;80.70;;;;;;5015391;28;21061;-76
2022/10/31 11:13:48;;;;;;;16.17;11.95;;;16.80;81.00;;;;;;5013458;28;20469;-76
2022/10/31 11:16:27;;;;;;;18.67;12.85;;;16.90;80.80;;;;;;5020549;28;20482;-76
2022/10/31 11:19:04;;;;;;;14.55;10.68;;;16.90;80.60;;;;;;5013244;28;20147;-75
2022/10/31 11:21:33;;;;;;;19.83;11.93;;;17.00;80.70;;;;;;5022390;28;20394;-77
2022/10/31 11:24:11;;;;;;;15.48;11.55;;;17.00;80.30;;;;;;5019292;28;20032;-79
2022/10/31 11:26:41;;;;;;;16.92;11.55;;;17.10;80.30;;;;;;5013157;28;20491;-78
2022/10/31 11:29:36;;;;;;;19.55;11.30;;;17.10;80.10;;;;;;4998702;28;20074;-75
2022/10/31 11:32:02;;;;;;;16.50;11.55;;;17.10;80.40;;;;;;5004468;28;20041;-77
2022/10/31 11:34:28;;;;;;;14.25;10.68;;;17.20;79.90;;;;;;5014209;28;20045;-76
2022/10/31 11:36:54;;;;;;;18.08;11.43;;;17.20;79.80;;;;;;5014812;28;20119;-77
2022/10/31 11:39:24;;;;;;;19.80;10.85;;;17.30;79.90;;;;;;5018282;28;20048;-75
2022/10/31 11:41:55;;;;;;;15.20;10.43;;;17.30;79.80;;;;;;5019563;28;20045;-75
2022/10/31 11:44:27;;;;;;;15.27;10.15;;;17.30;79.80;;;;;;5019536;28;20607;-74
2022/10/31 11:46:58;;;;;;;16.50;9.75;;;17.30;79.70;;;;;;5026864;28;20121;-75
2022/10/31 11:49:38;;;;;;;13.20;9.10;;;17.30;79.50;;;;;;5015016;28;20047;-75
2022/10/31 11:52:13;;;;;;;13.73;9.13;;;17.30;79.60;;;;;;5016782;28;20049;-75
2022/10/31 11:55:12;;;;;;;13.35;8.60;;;17.30;79.90;;;;;;5009713;28;20033;-75
2022/10/31 11:57:46;;;;;;;16.58;9.68;;;17.40;78.90;;;;;;5025827;28;20580;-75
2022/10/31 12:00:22;;;;;;;18.10;10.15;;;17.40;79.00;;;;;;5019054;28;20401;-75
2022/10/31 12:02:49;;;;;;;14.52;9.63;;;17.50;79.00;;;;;;5018973;28;20038;-75
2022/10/31 12:05:23;;;;;;;18.00;10.25;;;17.50;79.00;;;;;;5024064;28;20038;-75
2022/10/31 12:07:49;;;;;;;;;;;17.50;79.00;;;;;;5016778;28;20366;-74
2022/10/31 12:10:15;;;;;;;14.65;8.88;;;17.60;79.00;;;;;;5020062;28;19963;-74
2022/10/31 12:12:50;;;;;;;12.90;9.45;;;17.60;78.80;;;;;;5019527;28;20029;-75
2022/10/31 12:15:33;;;;;;;13.82;9.45;;;17.50;78.70;;;;;;5013211;28;20535;-75
2022/10/31 12:18:36;;;;;;;14.68;9.48;;;17.60;79.20;;;;;;5015531;28;20025;-75
2022/10/31 12:21:19;;;;;;;16.98;9.65;;;17.60;79.20;;;;;;5012276;28;20855;-74
2022/10/31 12:24:05;;;;;;;17.92;9.70;;;17.70;79.00;;;;;;5015307;28;20034;-76
2022/10/31 12:26:48;;;;;;;14.65;10.05;;;17.80;79.10;;;;;;5016299;28;20120;-76
2022/10/31 12:29:24;;;;;;;14.48;9.88;;;17.70;78.40;;;;;;5017792;28;20056;-78
2022/10/31 12:32:22;;;;;;;17.33;10.55;;;17.80;78.20;;;;;;5023323;28;20150;-78
2022/10/31 12:34:59;;;;;;;15.70;9.38;;;17.60;78.20;;;;;;5017072;28;20111;-78
2022/10/31 12:37:48;;;;;;;21.92;10.88;;;17.60;78.30;;;;;;5016887;28;20080;-76
2022/10/31 12:40:28;;;;;;;16.40;10.73;;;17.50;78.60;;;;;;5018734;28;20448;-79
2022/10/31 12:43:12;;;;;;;18.35;9.98;;;17.50;78.70;;;;;;5009308;28;20042;-78
2022/10/31 12:45:55;;;;;;;17.15;11.27;;;17.40;79.30;;;;;;5015725;28;20040;-78
2022/10/31 12:48:39;;;;;;;18.00;11.35;;;17.30;79.80;;;;;;5020315;28;21636;-78
2022/10/31 12:51:19;;;;;;;17.00;10.35;;;17.40;79.90;;;;;;5018353;28;20382;-78
2022/10/31 12:54:29;;;;;;;15.45;11.05;;;17.30;79.40;;;;;;5016190;28;20687;-78
2022/10/31 12:57:03;;;;;;;20.98;12.48;;;17.30;79.70;;;;;;4972842;28;20128;-77